createdAt,value
2022-12-19T00:04:38.162Z,-1.06
2022-12-19T00:09:39.675Z,-0.99
2022-12-19T00:14:41.170Z,-1.02
2022-12-19T00:19:43.118Z,-1.04
2022-12-19T00:24:44.596Z,-1.06
2022-12-19T00:29:46.237Z,-1.04
2022-12-19T00:34:48.135Z,-1.02
2022-12-19T00:39:49.845Z,-1.02
2022-12-19T00:44:51.417Z,-1.03
2022-12-19T00:49:52.893Z,-1.09
2022-12-19T00:54:56.203Z,-1.04
2022-12-19T00:59:57.779Z,-1.03
2022-12-19T01:05:01.140Z,-1.05
2022-12-19T01:10:03.467Z,-1.03
2022-12-19T01:15:05.526Z,-1.06
2022-12-19T01:20:07.744Z,-1.01
2022-12-19T01:25:11.817Z,-1.03
2022-12-19T01:30:13.942Z,-0.96
2022-12-19T01:35:21.527Z,-0.96
2022-12-19T01:40:24.238Z,-0.93
2022-12-19T01:45:34.510Z,-0.91
2022-12-19T01:51:01.931Z,-0.90
2022-12-19T01:56:08.942Z,-0.98
2022-12-19T02:01:10.669Z,-0.95
2022-12-19T02:06:16.452Z,-0.92
2022-12-19T02:11:18.545Z,-0.84
2022-12-19T02:16:38.580Z,-0.81
2022-12-19T02:21:55.168Z,-0.80
2022-12-19T02:27:12.066Z,-0.75
2022-12-19T02:32:34.767Z,-0.72
2022-12-19T02:37:56.747Z,-0.66
2022-12-19T02:43:03.550Z,-0.61
2022-12-19T02:48:08.944Z,-0.55
2022-12-19T02:53:14.721Z,-0.48
2022-12-19T02:58:42.303Z,-0.40
2022-12-19T03:04:22.710Z,-0.34
2022-12-19T03:09:50.558Z,-0.29
2022-12-19T03:14:57.480Z,-0.13
2022-12-19T03:20:00.748Z,-0.12
2022-12-19T03:25:02.417Z,-0.12
2022-12-19T03:30:08.797Z,-0.09
2022-12-19T03:35:27.275Z,-0.08
2022-12-19T03:40:29.037Z,0.02
2022-12-19T03:46:02.664Z,0.04
2022-12-19T03:51:07.139Z,0.10
2022-12-19T03:56:22.771Z,0.12
2022-12-19T04:01:27.414Z,0.13
2022-12-19T04:06:32.387Z,0.20
2022-12-19T04:11:47.275Z,0.30
2022-12-19T04:16:56.484Z,0.24
2022-12-19T04:22:07.980Z,0.28
2022-12-19T04:27:10.949Z,0.26
2022-12-19T04:32:14.133Z,0.22
2022-12-19T04:37:15.727Z,0.23
2022-12-19T04:42:17.252Z,0.34
2022-12-19T04:47:19.276Z,0.32
2022-12-19T04:52:20.801Z,0.32
2022-12-19T04:57:22.322Z,0.32
2022-12-19T05:02:24.649Z,0.34
2022-12-19T05:07:26.279Z,0.41
2022-12-19T05:12:29.350Z,0.45
2022-12-19T05:17:30.860Z,0.47
2022-12-19T05:22:32.351Z,0.60
2022-12-19T05:27:33.839Z,0.61
2022-12-19T05:32:35.349Z,0.63
2022-12-19T05:37:36.829Z,0.64
2022-12-19T05:42:38.336Z,0.70
2022-12-19T05:47:39.903Z,0.79
2022-12-19T05:52:41.524Z,0.92
2022-12-19T05:57:43.226Z,0.92
2022-12-19T06:02:48.425Z,0.92
2022-12-19T06:07:50.026Z,0.95
2022-12-19T06:12:51.550Z,0.94
2022-12-19T06:17:54.332Z,0.97
2022-12-19T06:22:55.825Z,1.06
2022-12-19T06:27:57.314Z,1.07
2022-12-19T06:32:58.810Z,1.08
2022-12-19T06:38:01.106Z,1.08
2022-12-19T06:43:02.824Z,1.09
2022-12-19T06:48:04.600Z,1.14
2022-12-19T06:53:06.145Z,1.10
2022-12-19T06:58:07.887Z,1.13
2022-12-19T07:03:13.460Z,1.17
2022-12-19T07:08:15.008Z,1.21
2022-12-19T07:13:16.918Z,1.30
2022-12-19T07:18:18.540Z,1.30
2022-12-19T07:23:21.716Z,1.38
2022-12-19T07:28:23.239Z,1.47
2022-12-19T07:33:24.751Z,1.51
2022-12-19T07:38:26.220Z,1.56
2022-12-19T07:43:27.881Z,1.65
2022-12-19T07:48:30.948Z,1.70
2022-12-19T07:53:32.562Z,1.78
2022-12-19T07:58:34.243Z,1.82
2022-12-19T08:03:36.070Z,1.86
2022-12-19T08:08:37.772Z,1.90
2022-12-19T08:13:46.248Z,1.91
2022-12-19T08:18:48.687Z,1.91
2022-12-19T08:23:50.349Z,1.96
2022-12-19T08:28:53.763Z,2.01
2022-12-19T08:33:57.012Z,2.03
2022-12-19T08:38:58.547Z,2.06
2022-12-19T08:44:01.836Z,2.16
2022-12-19T08:49:03.953Z,2.21
2022-12-19T08:54:07.885Z,2.31
2022-12-19T08:59:12.278Z,2.39
2022-12-19T09:06:00.268Z,2.48
2022-12-19T09:09:36.513Z,2.61
2022-12-19T09:14:38.254Z,2.73
2022-12-19T09:19:39.953Z,2.76
2022-12-19T09:24:44.515Z,2.87
2022-12-19T09:29:46.008Z,2.97
2022-12-19T09:34:47.492Z,3.08
2022-12-19T09:39:49.084Z,3.15
2022-12-19T09:45:09.756Z,3.25
2022-12-19T09:50:32.088Z,3.44
2022-12-19T09:55:41.101Z,3.57
2022-12-19T10:00:48.396Z,3.72
2022-12-19T10:07:10.625Z,3.83
2022-12-19T10:12:44.543Z,3.90
2022-12-19T10:17:31.627Z,3.98
2022-12-19T10:22:51.357Z,4.00
2022-12-19T10:28:08.129Z,4.09
2022-12-19T10:33:29.251Z,4.14
2022-12-19T10:38:54.480Z,4.19
2022-12-19T10:44:06.398Z,4.24
2022-12-19T10:49:23.571Z,4.28
2022-12-19T10:54:37.835Z,4.35
2022-12-19T10:59:39.354Z,4.41
2022-12-19T11:04:41.117Z,4.46
2022-12-19T11:09:46.824Z,4.54
2022-12-19T11:21:16.167Z,4.64
2022-12-19T11:29:26.877Z,4.68
2022-12-19T11:30:35.458Z,4.75
2022-12-19T11:37:01.515Z,4.94
2022-12-19T11:42:21.295Z,5.00
2022-12-19T11:48:04.870Z,5.09
2022-12-19T11:53:19.672Z,5.17
2022-12-19T11:58:24.111Z,5.20
2022-12-19T12:04:02.230Z,5.22
2022-12-19T12:13:31.772Z,5.29
2022-12-19T12:30:13.775Z,5.34
2022-12-19T12:31:31.783Z,5.40
2022-12-19T12:31:53.449Z,5.47
2022-12-19T12:35:33.020Z,5.47
2022-12-19T12:43:43.958Z,5.62
2022-12-19T12:48:52.227Z,5.62
2022-12-19T12:54:14.945Z,5.62
2022-12-19T12:59:24.449Z,5.64
2022-12-19T13:04:27.639Z,5.64
2022-12-19T13:09:31.790Z,5.67
2022-12-19T13:14:37.090Z,5.70
2022-12-19T13:20:00.006Z,5.73
2022-12-19T13:25:01.741Z,5.76
2022-12-19T13:30:12.509Z,5.76
2022-12-19T13:36:15.827Z,5.76
2022-12-19T13:40:44.494Z,5.80
2022-12-19T13:45:58.875Z,5.85
2022-12-19T13:51:05.551Z,5.89
2022-12-19T13:56:19.284Z,5.93
2022-12-19T14:01:27.953Z,5.95
2022-12-19T14:06:54.021Z,6.01
2022-12-19T14:13:50.195Z,6.01
2022-12-19T14:17:21.825Z,6.04
2022-12-19T14:22:26.978Z,6.05
2022-12-19T14:28:20.205Z,6.06
2022-12-19T14:33:46.784Z,6.12
2022-12-19T14:39:21.314Z,6.17
2022-12-19T14:43:59.169Z,6.23
2022-12-19T14:54:09.465Z,6.27
2022-12-19T14:56:09.323Z,6.22
2022-12-19T15:01:09.385Z,6.24
2022-12-19T15:07:05.880Z,6.24
2022-12-19T15:14:46.476Z,6.29
2022-12-19T15:17:44.995Z,6.30
2022-12-19T15:22:47.025Z,6.33
2022-12-19T15:27:48.563Z,6.33
2022-12-19T15:32:50.084Z,6.36
2022-12-19T15:37:52.022Z,6.39
2022-12-19T15:42:57.047Z,6.35
2022-12-19T15:47:58.835Z,6.38
2022-12-19T15:53:01.023Z,6.39
2022-12-19T15:58:06.250Z,6.39
2022-12-19T16:03:23.238Z,6.46
2022-12-19T16:08:26.851Z,6.48
2022-12-19T16:13:34.733Z,6.47
2022-12-19T16:18:36.437Z,6.48
2022-12-19T16:23:38.068Z,6.43
2022-12-19T16:28:39.529Z,6.41
2022-12-19T16:33:41.199Z,6.36
2022-12-19T16:38:42.676Z,6.34
2022-12-19T16:43:45.795Z,6.33
2022-12-19T16:48:48.139Z,6.36
2022-12-19T16:53:51.820Z,6.29
2022-12-19T16:58:55.994Z,6.31
2022-12-19T17:03:57.491Z,6.27
2022-12-19T17:08:59.171Z,6.28
2022-12-19T17:14:08.376Z,6.30
2022-12-19T17:19:21.968Z,6.27
2022-12-19T17:24:23.526Z,6.35
2022-12-19T17:29:25.000Z,6.35
2022-12-19T17:34:30.718Z,6.33
2022-12-19T17:39:34.552Z,6.32
2022-12-19T17:44:36.063Z,6.36
2022-12-19T17:49:38.805Z,6.35
2022-12-19T17:54:40.288Z,6.36
2022-12-19T17:59:42.406Z,6.44
2022-12-19T18:04:44.041Z,6.50
2022-12-19T18:09:46.007Z,6.50
2022-12-19T18:14:47.560Z,6.48
2022-12-19T18:19:49.144Z,6.47
2022-12-19T18:24:51.557Z,6.49
2022-12-19T18:29:53.101Z,6.51
2022-12-19T18:34:54.626Z,6.53
2022-12-19T18:39:56.727Z,6.58
2022-12-19T18:44:58.396Z,6.54
2022-12-19T18:49:59.922Z,6.60
2022-12-19T18:55:01.491Z,6.55
2022-12-19T19:00:03.519Z,6.50
2022-12-19T19:05:13.139Z,6.50
2022-12-19T19:10:20.953Z,6.52
2022-12-19T19:15:32.704Z,6.54
2022-12-19T19:20:38.530Z,6.47
2022-12-19T19:25:40.713Z,6.47
2022-12-19T19:30:42.988Z,6.60
2022-12-19T19:35:47.876Z,6.56
2022-12-19T19:40:50.146Z,6.59
2022-12-19T19:45:51.668Z,6.64
2022-12-19T19:50:53.400Z,6.62
2022-12-19T19:56:00.643Z,6.60
2022-12-19T20:01:10.898Z,6.57
2022-12-19T20:06:12.652Z,6.46
2022-12-19T20:11:14.337Z,6.38
2022-12-19T20:16:18.433Z,6.35
2022-12-19T20:21:21.066Z,6.34
2022-12-19T20:26:22.795Z,6.28
2022-12-19T20:31:24.800Z,6.26
2022-12-19T20:36:26.488Z,6.27
2022-12-19T20:41:28.218Z,6.31
2022-12-19T20:46:29.802Z,6.35
2022-12-19T20:51:32.048Z,6.39
2022-12-19T20:56:35.062Z,6.42
2022-12-19T21:01:37.117Z,6.41
2022-12-19T21:06:39.417Z,6.44
2022-12-19T21:11:41.109Z,6.50
2022-12-19T21:16:43.079Z,6.64
2022-12-19T21:21:44.804Z,6.67
2022-12-19T21:26:54.492Z,6.74
2022-12-19T21:31:59.737Z,6.79
2022-12-19T21:37:01.367Z,6.73
2022-12-19T21:42:06.515Z,6.64
2022-12-19T21:47:08.231Z,6.66
2022-12-19T21:52:10.089Z,6.70
2022-12-19T21:57:11.641Z,6.74
2022-12-19T22:02:13.342Z,6.74
2022-12-19T22:07:15.377Z,6.78
2022-12-19T22:12:17.319Z,6.80
2022-12-19T22:17:18.916Z,6.77
2022-12-19T22:22:20.578Z,6.74
2022-12-19T22:27:22.115Z,6.80
2022-12-19T22:32:23.630Z,6.80
2022-12-19T22:37:25.283Z,6.82
2022-12-19T22:42:30.139Z,6.91
2022-12-19T22:47:31.759Z,7.06
2022-12-19T22:52:33.796Z,7.10
2022-12-19T22:57:35.417Z,7.16
2022-12-19T23:02:41.365Z,7.23
2022-12-19T23:07:42.960Z,7.27
2022-12-19T23:12:44.629Z,7.30
2022-12-19T23:17:46.272Z,7.31
2022-12-19T23:22:47.898Z,7.24
2022-12-19T23:27:49.448Z,7.16
2022-12-19T23:32:51.286Z,7.08
2022-12-19T23:37:52.996Z,7.12
2022-12-19T23:42:54.514Z,7.17
2022-12-19T23:47:56.594Z,7.19
2022-12-19T23:52:58.228Z,7.22
2022-12-19T23:58:00.142Z,7.28
